sensor_id;sensor_type;location;lat;lon;timestamp;pressure;altitude;pressure_sealevel;temperature;humidity
35878;BME280;21982;49.804;24.072;2022-12-18T00:19:05;98147.75;;;-3.23;78.04
35878;BME280;21982;49.804;24.072;2022-12-18T00:21:31;98161.97;;;-3.15;77.73
35878;BME280;21982;49.804;24.072;2022-12-18T00:23:58;98157.59;;;-3.14;77.54
35878;BME280;21982;49.804;24.072;2022-12-18T00:26:29;98159.09;;;-3.10;77.75
35878;BME280;21982;49.804;24.072;2022-12-18T00:28:58;98116.53;;;-3.38;77.59
35878;BME280;21982;49.804;24.072;2022-12-18T00:31:25;98173.56;;;-3.06;77.64
35878;BME280;21982;49.804;24.072;2022-12-18T00:33:51;98148.50;;;-3.21;77.27
35878;BME280;21982;49.804;24.072;2022-12-18T00:36:27;98152.91;;;-3.23;77.06
35878;BME280;21982;49.804;24.072;2022-12-18T00:38:58;98131.84;;;-3.33;76.63
35878;BME280;21982;49.804;24.072;2022-12-18T00:41:24;98173.63;;;-3.23;76.77
35878;BME280;21982;49.804;24.072;2022-12-18T00:44:11;98196.72;;;-3.19;76.90
35878;BME280;21982;49.804;24.072;2022-12-18T00:46:37;98183.69;;;-3.17;76.85
35878;BME280;21982;49.804;24.072;2022-12-18T00:49:03;98204.03;;;-3.11;76.70
35878;BME280;21982;49.804;24.072;2022-12-18T00:51:28;98191.09;;;-3.11;76.86
35878;BME280;21982;49.804;24.072;2022-12-18T00:53:54;98185.66;;;-3.22;76.88
35878;BME280;21982;49.804;24.072;2022-12-18T00:56:19;98206.63;;;-3.11;76.61
35878;BME280;21982;49.804;24.072;2022-12-18T00:58:47;98182.91;;;-3.19;76.45
35878;BME280;21982;49.804;24.072;2022-12-18T01:01:13;98216.28;;;-2.97;76.50
35878;BME280;21982;49.804;24.072;2022-12-18T01:03:38;98237.38;;;-2.88;76.54
35878;BME280;21982;49.804;24.072;2022-12-18T01:06:08;98200.38;;;-3.07;76.02
35878;BME280;21982;49.804;24.072;2022-12-18T01:08:35;98241.22;;;-2.79;75.97
35878;BME280;21982;49.804;24.072;2022-12-18T01:11:13;98238.03;;;-2.84;75.53
35878;BME280;21982;49.804;24.072;2022-12-18T01:13:40;98192.28;;;-3.01;75.71
35878;BME280;21982;49.804;24.072;2022-12-18T01:16:06;98231.84;;;-2.82;75.89
35878;BME280;21982;49.804;24.072;2022-12-18T01:18:31;98175.63;;;-3.28;75.58
35878;BME280;21982;49.804;24.072;2022-12-18T01:20:56;98238.19;;;-2.87;76.00
35878;BME280;21982;49.804;24.072;2022-12-18T01:23:23;98180.13;;;-3.32;75.81
35878;BME280;21982;49.804;24.072;2022-12-18T01:25:52;98256.41;;;-2.89;75.60
35878;BME280;21982;49.804;24.072;2022-12-18T01:28:17;98237.66;;;-3.10;75.71
35878;BME280;21982;49.804;24.072;2022-12-18T01:30:43;98220.19;;;-3.22;75.96
35878;BME280;21982;49.804;24.072;2022-12-18T01:33:08;98226.03;;;-3.18;75.83
35878;BME280;21982;49.804;24.072;2022-12-18T01:35:40;98271.97;;;-2.89;75.71
35878;BME280;21982;49.804;24.072;2022-12-18T01:38:06;98272.88;;;-2.90;75.88
35878;BME280;21982;49.804;24.072;2022-12-18T01:40:32;98200.25;;;-3.37;75.26
35878;BME280;21982;49.804;24.072;2022-12-18T01:42:57;98274.03;;;-2.95;75.57
35878;BME280;21982;49.804;24.072;2022-12-18T01:45:28;98247.09;;;-3.09;75.04
35878;BME280;21982;49.804;24.072;2022-12-18T01:48:02;98291.50;;;-2.99;75.51
35878;BME280;21982;49.804;24.072;2022-12-18T01:50:40;98194.38;;;-3.56;75.17
35878;BME280;21982;49.804;24.072;2022-12-18T01:53:12;98288.16;;;-3.01;75.09
35878;BME280;21982;49.804;24.072;2022-12-18T01:55:51;98305.44;;;-3.01;75.10
35878;BME280;21982;49.804;24.072;2022-12-18T01:58:18;98299.66;;;-3.07;75.65
35878;BME280;21982;49.804;24.072;2022-12-18T02:00:44;98305.19;;;-3.13;75.64
35878;BME280;21982;49.804;24.072;2022-12-18T02:03:10;98305.34;;;-3.16;75.42
35878;BME280;21982;49.804;24.072;2022-12-18T02:05:46;98309.44;;;-3.12;75.45
35878;BME280;21982;49.804;24.072;2022-12-18T02:08:21;98306.50;;;-3.21;75.28
35878;BME280;21982;49.804;24.072;2022-12-18T02:13:57;98314.25;;;-3.21;75.21
35878;BME280;21982;49.804;24.072;2022-12-18T02:19:14;98292.78;;;-3.41;75.10
35878;BME280;21982;49.804;24.072;2022-12-18T02:22:12;98334.06;;;-3.20;75.40
35878;BME280;21982;49.804;24.072;2022-12-18T02:24:53;98334.97;;;-3.21;75.18
35878;BME280;21982;49.804;24.072;2022-12-18T02:27:24;98333.53;;;-3.27;75.60
35878;BME280;21982;49.804;24.072;2022-12-18T02:29:51;98330.56;;;-3.37;75.17
35878;BME280;21982;49.804;24.072;2022-12-18T02:32:22;98326.53;;;-3.42;75.14
35878;BME280;21982;49.804;24.072;2022-12-18T02:34:50;98349.44;;;-3.34;75.45
35878;BME280;21982;49.804;24.072;2022-12-18T02:37:18;98328.69;;;-3.50;75.65
35878;BME280;21982;49.804;24.072;2022-12-18T02:39:46;98363.75;;;-3.45;75.20
35878;BME280;21982;49.804;24.072;2022-12-18T02:42:13;98278.75;;;-4.06;75.12
35878;BME280;21982;49.804;24.072;2022-12-18T02:44:49;98358.75;;;-3.48;75.75
35878;BME280;21982;49.804;24.072;2022-12-18T02:47:18;98381.16;;;-3.47;75.58
35878;BME280;21982;49.804;24.072;2022-12-18T02:55:16;98390.13;;;-3.54;75.50
35878;BME280;21982;49.804;24.072;2022-12-18T02:57:54;98368.47;;;-3.70;75.33
35878;BME280;21982;49.804;24.072;2022-12-18T03:00:51;98382.66;;;-3.60;75.34
35878;BME280;21982;49.804;24.072;2022-12-18T03:03:46;98388.25;;;-3.69;75.24
35878;BME280;21982;49.804;24.072;2022-12-18T03:06:14;98400.22;;;-3.66;75.79
35878;BME280;21982;49.804;24.072;2022-12-18T07:31:14;98245.59;;;-7.16;76.40
35878;BME280;21982;49.804;24.072;2022-12-18T07:33:40;98752.31;;;-4.10;77.22
35878;BME280;21982;49.804;24.072;2022-12-18T07:36:07;98830.22;;;-3.74;77.50
35878;BME280;21982;49.804;24.072;2022-12-18T07:38:34;98580.88;;;-5.18;77.37
35878;BME280;21982;49.804;24.072;2022-12-18T07:41:08;98816.97;;;-3.66;77.68
35878;BME280;21982;49.804;24.072;2022-12-18T07:43:34;98622.84;;;-4.90;77.63
35878;BME280;21982;49.804;24.072;2022-12-18T07:46:01;98534.31;;;-5.59;77.75
35878;BME280;21982;49.804;24.072;2022-12-18T07:48:30;98645.72;;;-4.81;77.79
35878;BME280;21982;49.804;24.072;2022-12-18T07:51:04;98831.22;;;-3.56;77.86
35878;BME280;21982;49.804;24.072;2022-12-18T07:53:30;98750.69;;;-4.13;77.49
35878;BME280;21982;49.804;24.072;2022-12-18T07:55:56;98612.50;;;-5.12;77.71
35878;BME280;21982;49.804;24.072;2022-12-18T07:58:22;98785.78;;;-4.06;77.41
35878;BME280;21982;49.804;24.072;2022-12-18T08:00:47;98854.47;;;-3.55;77.67
35878;BME280;21982;49.804;24.072;2022-12-18T08:03:13;98794.44;;;-4.07;77.77
35878;BME280;21982;49.804;24.072;2022-12-18T08:05:38;98839.22;;;-3.62;77.25
35878;BME280;21982;49.804;24.072;2022-12-18T08:08:04;98701.91;;;-4.42;77.25
35878;BME280;21982;49.804;24.072;2022-12-18T08:10:29;98873.88;;;-3.45;77.32
35878;BME280;21982;49.804;24.072;2022-12-18T08:12:56;98872.19;;;-3.46;77.45
35878;BME280;21982;49.804;24.072;2022-12-18T08:15:22;98875.72;;;-3.47;77.39
35878;BME280;21982;49.804;24.072;2022-12-18T08:17:48;98807.97;;;-4.00;77.02
35878;BME280;21982;49.804;24.072;2022-12-18T08:20:17;98734.66;;;-4.43;76.80
35878;BME280;21982;49.804;24.072;2022-12-18T08:22:46;98892.91;;;-3.46;77.04
35878;BME280;21982;49.804;24.072;2022-12-18T08:25:11;98616.19;;;-5.19;76.59
35878;BME280;21982;49.804;24.072;2022-12-18T08:27:36;98901.84;;;-3.53;76.69
35878;BME280;21982;49.804;24.072;2022-12-18T08:30:03;98890.59;;;-3.52;76.90
35878;BME280;21982;49.804;24.072;2022-12-18T08:32:29;98844.69;;;-3.90;76.57
35878;BME280;21982;49.804;24.072;2022-12-18T08:34:54;98910.53;;;-3.54;76.57
35878;BME280;21982;49.804;24.072;2022-12-18T08:37:19;98900.88;;;-3.50;76.74
35878;BME280;21982;49.804;24.072;2022-12-18T08:39:45;98898.47;;;-3.55;76.73
35878;BME280;21982;49.804;24.072;2022-12-18T08:42:11;98859.91;;;-3.83;76.45
35878;BME280;21982;49.804;24.072;2022-12-18T08:44:55;98896.44;;;-3.68;76.36
35878;BME280;21982;49.804;24.072;2022-12-18T08:47:20;98731.13;;;-4.62;76.35
35878;BME280;21982;49.804;24.072;2022-12-18T08:49:45;98899.69;;;-3.63;76.15
35878;BME280;21982;49.804;24.072;2022-12-18T08:52:14;98827.00;;;-4.23;76.02
35878;BME280;21982;49.804;24.072;2022-12-18T08:54:39;98815.09;;;-4.27;76.30
35878;BME280;21982;49.804;24.072;2022-12-18T08:57:04;98902.94;;;-3.58;76.45
35878;BME280;21982;49.804;24.072;2022-12-18T08:59:30;98781.94;;;-4.39;76.18
35878;BME280;21982;49.804;24.072;2022-12-18T09:01:55;98913.47;;;-3.63;76.03
35878;BME280;21982;49.804;24.072;2022-12-18T09:04:21;98931.47;;;-3.60;76.00
35878;BME280;21982;49.804;24.072;2022-12-18T09:06:46;98863.81;;;-3.94;76.18
35878;BME280;21982;49.804;24.072;2022-12-18T09:09:12;98754.16;;;-4.56;75.76
35878;BME280;21982;49.804;24.072;2022-12-18T09:11:37;98691.31;;;-5.01;75.50
35878;BME280;21982;49.804;24.072;2022-12-18T09:14:03;98862.75;;;-3.89;75.55
35878;BME280;21982;49.804;24.072;2022-12-18T09:16:29;98829.88;;;-4.09;75.87
35878;BME280;21982;49.804;24.072;2022-12-18T09:18:55;98898.78;;;-3.84;75.48
35878;BME280;21982;49.804;24.072;2022-12-18T09:21:26;98924.84;;;-3.67;75.50
35878;BME280;21982;49.804;24.072;2022-12-18T09:23:54;98686.09;;;-5.00;75.46
35878;BME280;21982;49.804;24.072;2022-12-18T09:26:20;98929.91;;;-3.64;75.52
35878;BME280;21982;49.804;24.072;2022-12-18T09:28:46;98721.47;;;-4.80;75.21
35878;BME280;21982;49.804;24.072;2022-12-18T09:31:14;98918.22;;;-3.52;75.23
35878;BME280;21982;49.804;24.072;2022-12-18T09:33:40;98838.06;;;-3.97;75.73
35878;BME280;21982;49.804;24.072;2022-12-18T09:36:07;98920.13;;;-3.35;75.32
35878;BME280;21982;49.804;24.072;2022-12-18T09:38:34;98938.91;;;-3.30;74.81
35878;BME280;21982;49.804;24.072;2022-12-18T09:41:05;98958.63;;;-3.26;74.80
35878;BME280;21982;49.804;24.072;2022-12-18T09:49:20;98885.59;;;-3.56;74.75
35878;BME280;21982;49.804;24.072;2022-12-18T09:52:02;98939.41;;;-3.43;74.73
35878;BME280;21982;49.804;24.072;2022-12-18T09:54:38;98899.81;;;-3.88;74.79
35878;BME280;21982;49.804;24.072;2022-12-18T09:57:20;98885.91;;;-3.86;74.49
35878;BME280;21982;49.804;24.072;2022-12-18T09:59:51;98962.06;;;-3.48;74.94
35878;BME280;21982;49.804;24.072;2022-12-18T10:02:24;98935.56;;;-3.54;74.64
35878;BME280;21982;49.804;24.072;2022-12-18T10:05:03;98975.91;;;-3.49;74.21
35878;BME280;21982;49.804;24.072;2022-12-18T10:21:13;98763.09;;;-4.64;74.13
35878;BME280;21982;49.804;24.072;2022-12-18T10:26:31;98695.06;;;-5.10;73.73
35878;BME280;21982;49.804;24.072;2022-12-18T10:28:58;98817.06;;;-4.33;73.95
35878;BME280;21982;49.804;24.072;2022-12-18T10:31:24;98853.69;;;-4.00;73.88
35878;BME280;21982;49.804;24.072;2022-12-18T10:33:51;98972.34;;;-3.24;73.59
35878;BME280;21982;49.804;24.072;2022-12-18T10:36:16;98951.25;;;-3.15;73.71
35878;BME280;21982;49.804;24.072;2022-12-18T10:38:42;98699.69;;;-4.51;73.30
35878;BME280;21982;49.804;24.072;2022-12-18T10:44:12;98954.81;;;-2.77;72.72
35878;BME280;21982;49.804;24.072;2022-12-18T10:46:40;98954.00;;;-2.78;72.60
35878;BME280;21982;49.804;24.072;2022-12-18T10:49:18;98963.59;;;-2.80;72.32
35878;BME280;21982;49.804;24.072;2022-12-18T10:51:45;98774.16;;;-3.95;72.72
35878;BME280;21982;49.804;24.072;2022-12-18T10:54:22;98820.94;;;-3.58;72.00
35878;BME280;21982;49.804;24.072;2022-12-18T10:56:48;98710.00;;;-4.29;72.01
35878;BME280;21982;49.804;24.072;2022-12-18T10:59:16;98977.72;;;-2.66;72.18
35878;BME280;21982;49.804;24.072;2022-12-18T11:04:22;98979.97;;;-2.59;71.77
35878;BME280;21982;49.804;24.072;2022-12-18T11:09:22;98971.69;;;-2.67;71.32
35878;BME280;21982;49.804;24.072;2022-12-18T11:12:15;98972.00;;;-2.54;71.13
35878;BME280;21982;49.804;24.072;2022-12-18T11:14:50;98963.63;;;-2.61;71.12
35878;BME280;21982;49.804;24.072;2022-12-18T11:17:25;98963.91;;;-2.67;71.56
35878;BME280;21982;49.804;24.072;2022-12-18T11:19:58;98863.72;;;-3.29;71.17
35878;BME280;21982;49.804;24.072;2022-12-18T11:22:29;98969.94;;;-2.66;71.19
35878;BME280;21982;49.804;24.072;2022-12-18T11:27:26;98973.56;;;-2.71;70.97
35878;BME280;21982;49.804;24.072;2022-12-18T11:29:51;98976.53;;;-2.59;71.20
35878;BME280;21982;49.804;24.072;2022-12-18T11:32:27;98954.19;;;-2.82;70.55
35878;BME280;21982;49.804;24.072;2022-12-18T11:35:02;98922.44;;;-2.87;71.00
35878;BME280;21982;49.804;24.072;2022-12-18T11:37:28;98984.97;;;-2.54;70.86
35878;BME280;21982;49.804;24.072;2022-12-18T11:40:13;98917.81;;;-3.21;70.04
35878;BME280;21982;49.804;24.072;2022-12-18T11:42:46;98671.78;;;-4.43;70.36
35878;BME280;21982;49.804;24.072;2022-12-18T11:45:27;98711.34;;;-4.41;69.87
35878;BME280;21982;49.804;24.072;2022-12-18T11:48:23;98989.75;;;-2.65;70.14
35878;BME280;21982;49.804;24.072;2022-12-18T11:50:53;98884.59;;;-3.32;70.71
35878;BME280;21982;49.804;24.072;2022-12-18T11:53:22;98959.94;;;-2.96;70.40
35878;BME280;21982;49.804;24.072;2022-12-18T12:04:16;98997.03;;;-2.53;69.78
35878;BME280;21982;49.804;24.072;2022-12-18T12:15:26;98997.50;;;-2.44;69.32
35878;BME280;21982;49.804;24.072;2022-12-18T12:18:05;98906.44;;;-2.97;69.75
35878;BME280;21982;49.804;24.072;2022-12-18T12:20:56;98992.22;;;-2.42;69.79
35878;BME280;21982;49.804;24.072;2022-12-18T12:26:02;98998.09;;;-2.39;69.86
35878;BME280;21982;49.804;24.072;2022-12-18T12:31:09;99002.31;;;-2.36;69.60
35878;BME280;21982;49.804;24.072;2022-12-18T12:39:40;98995.94;;;-2.48;69.44
35878;BME280;21982;49.804;24.072;2022-12-18T12:42:41;99024.91;;;-2.38;69.17
35878;BME280;21982;49.804;24.072;2022-12-18T12:45:53;98987.94;;;-2.63;69.21
35878;BME280;21982;49.804;24.072;2022-12-18T12:51:42;98855.00;;;-3.47;69.47
35878;BME280;21982;49.804;24.072;2022-12-18T12:57:04;98948.94;;;-2.81;69.08
35878;BME280;21982;49.804;24.072;2022-12-18T13:07:29;98536.44;;;-5.25;68.88
35878;BME280;21982;49.804;24.072;2022-12-18T13:18:29;99048.38;;;-2.41;69.16
35878;BME280;21982;49.804;24.072;2022-12-18T13:28:50;99072.19;;;-2.52;68.68
35878;BME280;21982;49.804;24.072;2022-12-18T13:36:44;99087.63;;;-2.71;68.92
35878;BME280;21982;49.804;24.072;2022-12-18T13:44:34;99106.03;;;-2.77;69.40
35878;BME280;21982;49.804;24.072;2022-12-18T13:47:01;99070.47;;;-2.95;69.25
35878;BME280;21982;49.804;24.072;2022-12-18T13:49:40;99104.22;;;-2.75;69.33
35878;BME280;21982;49.804;24.072;2022-12-18T13:52:22;98919.72;;;-3.90;68.80
35878;BME280;21982;49.804;24.072;2022-12-18T13:54:55;99123.03;;;-2.70;68.67
35878;BME280;21982;49.804;24.072;2022-12-18T13:59:58;99105.44;;;-2.83;68.68
35878;BME280;21982;49.804;24.072;2022-12-18T14:02:26;98492.63;;;-6.63;68.43
35878;BME280;21982;49.804;24.072;2022-12-18T14:04:52;98948.75;;;-3.82;68.89
35878;BME280;21982;49.804;24.072;2022-12-18T14:07:21;99134.25;;;-2.69;69.10
35878;BME280;21982;49.804;24.072;2022-12-18T14:09:59;99058.63;;;-3.22;68.32
35878;BME280;21982;49.804;24.072;2022-12-18T14:12:33;99084.94;;;-3.11;68.63
35878;BME280;21982;49.804;24.072;2022-12-18T14:18:07;99070.47;;;-3.39;68.73
35878;BME280;21982;49.804;24.072;2022-12-18T14:20:43;99057.09;;;-3.50;68.92
35878;BME280;21982;49.804;24.072;2022-12-18T14:23:32;99166.38;;;-2.95;68.76
35878;BME280;21982;49.804;24.072;2022-12-18T14:25:58;99092.88;;;-3.38;69.11
35878;BME280;21982;49.804;24.072;2022-12-18T14:28:24;99071.28;;;-3.60;68.86
35878;BME280;21982;49.804;24.072;2022-12-18T14:30:50;99183.41;;;-2.88;69.22
35878;BME280;21982;49.804;24.072;2022-12-18T14:33:22;99066.09;;;-3.60;68.54
35878;BME280;21982;49.804;24.072;2022-12-18T14:36:04;99147.25;;;-3.14;68.91
35878;BME280;21982;49.804;24.072;2022-12-18T14:38:38;99000.44;;;-4.04;68.78
35878;BME280;21982;49.804;24.072;2022-12-18T14:41:06;99188.25;;;-3.02;68.49
35878;BME280;21982;49.804;24.072;2022-12-18T14:43:37;99183.28;;;-3.08;68.54
35878;BME280;21982;49.804;24.072;2022-12-18T14:46:05;99188.97;;;-2.98;68.99
35878;BME280;21982;49.804;24.072;2022-12-18T14:48:38;99203.47;;;-2.93;68.47
35878;BME280;21982;49.804;24.072;2022-12-18T14:51:06;99099.22;;;-3.46;68.41
35878;BME280;21982;49.804;24.072;2022-12-18T14:53:38;99072.97;;;-3.59;68.16
35878;BME280;21982;49.804;24.072;2022-12-18T14:56:43;99195.84;;;-2.97;68.00
35878;BME280;21982;49.804;24.072;2022-12-18T14:59:19;99075.22;;;-3.73;68.25
35878;BME280;21982;49.804;24.072;2022-12-18T15:07:09;99215.34;;;-2.87;68.20
35878;BME280;21982;49.804;24.072;2022-12-18T15:09:37;99224.19;;;-2.93;68.51
35878;BME280;21982;49.804;24.072;2022-12-18T15:12:03;99205.72;;;-3.07;68.16
35878;BME280;21982;49.804;24.072;2022-12-18T15:26:37;99131.44;;;-5.07;70.20
35878;BME280;21982;49.804;24.072;2022-12-18T15:29:03;99235.28;;;-4.12;69.87
35878;BME280;21982;49.804;24.072;2022-12-18T15:37:07;99151.66;;;-4.13;69.41
35878;BME280;21982;49.804;24.072;2022-12-18T15:39:33;99243.44;;;-3.47;69.33
35878;BME280;21982;49.804;24.072;2022-12-18T19:17:12;99349.50;;;-3.70;67.67
35878;BME280;21982;49.804;24.072;2022-12-18T19:19:38;99418.03;;;-3.27;67.80
35878;BME280;21982;49.804;24.072;2022-12-18T19:22:03;98809.34;;;-6.90;68.01
35878;BME280;21982;49.804;24.072;2022-12-18T19:24:34;99368.78;;;-3.52;68.14
35878;BME280;21982;49.804;24.072;2022-12-18T19:27:00;99343.72;;;-3.78;67.90
35878;BME280;21982;49.804;24.072;2022-12-18T19:29:25;99335.50;;;-3.91;68.26
35878;BME280;21982;49.804;24.072;2022-12-18T19:31:51;99347.31;;;-3.82;68.68
35878;BME280;21982;49.804;24.072;2022-12-18T19:34:16;99253.91;;;-4.55;67.78
35878;BME280;21982;49.804;24.072;2022-12-18T19:36:42;99328.13;;;-3.77;68.51
35878;BME280;21982;49.804;24.072;2022-12-18T19:39:12;99401.84;;;-3.34;68.05
35878;BME280;21982;49.804;24.072;2022-12-18T19:41:39;99417.94;;;-3.24;67.81
35878;BME280;21982;49.804;24.072;2022-12-18T19:44:05;99299.66;;;-4.03;67.88
35878;BME280;21982;49.804;24.072;2022-12-18T19:46:30;99374.72;;;-3.49;68.02
35878;BME280;21982;49.804;24.072;2022-12-18T19:48:58;99403.28;;;-3.25;67.66
35878;BME280;21982;49.804;24.072;2022-12-18T19:51:25;99394.06;;;-3.34;67.34
35878;BME280;21982;49.804;24.072;2022-12-18T19:53:51;99436.44;;;-3.10;67.68
35878;BME280;21982;49.804;24.072;2022-12-18T19:56:19;99433.28;;;-3.18;67.19
35878;BME280;21982;49.804;24.072;2022-12-18T19:58:45;99427.75;;;-3.34;67.46
35878;BME280;21982;49.804;24.072;2022-12-18T20:01:18;99451.34;;;-3.43;67.38
35878;BME280;21982;49.804;24.072;2022-12-18T20:03:44;99237.34;;;-4.78;67.74
35878;BME280;21982;49.804;24.072;2022-12-18T20:06:13;99300.16;;;-4.46;67.66
35878;BME280;21982;49.804;24.072;2022-12-18T20:08:39;99462.66;;;-3.46;67.90
35878;BME280;21982;49.804;24.072;2022-12-18T20:11:06;99465.13;;;-3.43;67.47
35878;BME280;21982;49.804;24.072;2022-12-18T20:13:32;99467.72;;;-3.43;67.27
35878;BME280;21982;49.804;24.072;2022-12-18T20:15:58;99347.28;;;-4.09;67.48
35878;BME280;21982;49.804;24.072;2022-12-18T20:18:24;99459.44;;;-3.26;67.26
35878;BME280;21982;49.804;24.072;2022-12-18T20:20:55;99416.56;;;-3.62;66.82
35878;BME280;21982;49.804;24.072;2022-12-18T20:23:21;99468.00;;;-3.24;66.97
35878;BME280;21982;49.804;24.072;2022-12-18T20:25:47;99221.56;;;-4.68;66.24
35878;BME280;21982;49.804;24.072;2022-12-18T20:28:12;99424.59;;;-3.44;66.41
35878;BME280;21982;49.804;24.072;2022-12-18T20:30:38;99470.34;;;-3.16;66.02
35878;BME280;21982;49.804;24.072;2022-12-18T20:33:03;99306.81;;;-4.11;66.05
35878;BME280;21982;49.804;24.072;2022-12-18T20:35:31;99462.22;;;-3.06;65.64
35878;BME280;21982;49.804;24.072;2022-12-18T20:37:56;99456.31;;;-3.11;65.75
35878;BME280;21982;49.804;24.072;2022-12-18T20:40:23;99382.34;;;-3.46;65.57
35878;BME280;21982;49.804;24.072;2022-12-18T20:42:49;99329.31;;;-3.85;65.49
35878;BME280;21982;49.804;24.072;2022-12-18T20:45:14;99412.63;;;-3.74;65.57
35878;BME280;21982;49.804;24.072;2022-12-18T20:47:40;99471.63;;;-3.29;65.52
35878;BME280;21982;49.804;24.072;2022-12-18T20:50:06;99466.25;;;-3.50;65.82
35878;BME280;21982;49.804;24.072;2022-12-18T20:52:31;99471.81;;;-3.62;65.85
35878;BME280;21982;49.804;24.072;2022-12-18T20:54:57;99441.75;;;-3.95;65.86
35878;BME280;21982;49.804;24.072;2022-12-18T20:57:23;99390.22;;;-4.03;65.75
35878;BME280;21982;49.804;24.072;2022-12-18T20:59:48;99405.03;;;-3.80;65.63
35878;BME280;21982;49.804;24.072;2022-12-18T21:02:14;99469.16;;;-3.32;65.61
35878;BME280;21982;49.804;24.072;2022-12-18T21:04:40;99199.44;;;-5.07;65.39
35878;BME280;21982;49.804;24.072;2022-12-18T21:07:06;99468.56;;;-3.14;65.20
35878;BME280;21982;49.804;24.072;2022-12-18T21:09:32;99486.00;;;-3.19;64.94
35878;BME280;21982;49.804;24.072;2022-12-18T21:11:58;99475.78;;;-3.24;65.52
35878;BME280;21982;49.804;24.072;2022-12-18T21:14:43;99294.69;;;-4.37;65.03
35878;BME280;21982;49.804;24.072;2022-12-18T21:17:08;99487.84;;;-3.23;65.09
35878;BME280;21982;49.804;24.072;2022-12-18T21:25:24;99485.75;;;-3.40;65.21
35878;BME280;21982;49.804;24.072;2022-12-18T21:27:51;99423.06;;;-3.77;65.55
35878;BME280;21982;49.804;24.072;2022-12-18T21:30:16;99486.75;;;-3.44;64.92
35878;BME280;21982;49.804;24.072;2022-12-18T21:32:42;99431.53;;;-3.72;65.24
35878;BME280;21982;49.804;24.072;2022-12-18T21:35:07;99486.28;;;-3.28;64.99
35878;BME280;21982;49.804;24.072;2022-12-18T21:37:33;99500.13;;;-3.29;64.67
35878;BME280;21982;49.804;24.072;2022-12-18T21:39:58;99345.16;;;-4.24;64.66
35878;BME280;21982;49.804;24.072;2022-12-18T21:42:24;99400.16;;;-3.89;64.60
35878;BME280;21982;49.804;24.072;2022-12-18T21:45:08;99461.06;;;-3.50;64.80
35878;BME280;21982;49.804;24.072;2022-12-18T21:47:34;99484.78;;;-3.35;64.94
35878;BME280;21982;49.804;24.072;2022-12-18T21:50:00;99493.06;;;-3.24;64.66
35878;BME280;21982;49.804;24.072;2022-12-18T21:52:25;99492.88;;;-3.18;64.58
35878;BME280;21982;49.804;24.072;2022-12-18T21:54:51;99496.56;;;-3.25;64.28
35878;BME280;21982;49.804;24.072;2022-12-18T21:57:16;99311.59;;;-4.53;63.96
35878;BME280;21982;49.804;24.072;2022-12-18T21:59:42;99498.97;;;-3.47;64.53
35878;BME280;21982;49.804;24.072;2022-12-18T22:02:16;99477.66;;;-3.55;64.64
35878;BME280;21982;49.804;24.072;2022-12-18T22:04:43;99264.97;;;-4.80;64.91
35878;BME280;21982;49.804;24.072;2022-12-18T22:07:09;99400.97;;;-3.87;64.61
35878;BME280;21982;49.804;24.072;2022-12-18T22:09:35;99453.25;;;-3.48;64.33
35878;BME280;21982;49.804;24.072;2022-12-18T22:12:00;99092.88;;;-5.70;64.17
35878;BME280;21982;49.804;24.072;2022-12-18T22:14:26;99498.16;;;-3.21;63.96
35878;BME280;21982;49.804;24.072;2022-12-18T22:16:51;99497.81;;;-3.39;64.20
35878;BME280;21982;49.804;24.072;2022-12-18T22:19:18;99466.13;;;-3.75;64.42
35878;BME280;21982;49.804;24.072;2022-12-18T22:21:45;99507.09;;;-3.87;64.33
35878;BME280;21982;49.804;24.072;2022-12-18T22:24:13;99461.88;;;-4.05;64.87
35878;BME280;21982;49.804;24.072;2022-12-18T22:46:23;99510.41;;;-4.13;65.32
35878;BME280;21982;49.804;24.072;2022-12-18T22:48:49;99372.22;;;-4.96;65.00
35878;BME280;21982;49.804;24.072;2022-12-18T22:51:16;99416.00;;;-4.90;64.88
35878;BME280;21982;49.804;24.072;2022-12-18T22:53:43;99533.34;;;-4.32;64.84
35878;BME280;21982;49.804;24.072;2022-12-18T22:56:09;99497.09;;;-4.30;64.98
35878;BME280;21982;49.804;24.072;2022-12-18T22:58:34;99465.63;;;-4.46;65.29
35878;BME280;21982;49.804;24.072;2022-12-18T23:01:00;99358.31;;;-5.23;64.77
35878;BME280;21982;49.804;24.072;2022-12-18T23:03:25;99495.88;;;-4.50;64.74
35878;BME280;21982;49.804;24.072;2022-12-18T23:05:51;99139.84;;;-6.91;64.54
35878;BME280;21982;49.804;24.072;2022-12-18T23:08:16;99413.97;;;-5.11;64.86
35878;BME280;21982;49.804;24.072;2022-12-18T23:10:42;99263.38;;;-6.11;64.87
35878;BME280;21982;49.804;24.072;2022-12-18T23:13:07;98832.09;;;-8.78;64.58
35878;BME280;21982;49.804;24.072;2022-12-18T23:15:32;99474.56;;;-4.90;65.04
35878;BME280;21982;49.804;24.072;2022-12-18T23:17:58;99130.38;;;-7.27;65.03
35878;BME280;21982;49.804;24.072;2022-12-18T23:20:25;99356.72;;;-5.61;64.95
35878;BME280;21982;49.804;24.072;2022-12-18T23:22:51;99186.88;;;-6.83;64.63
35878;BME280;21982;49.804;24.072;2022-12-18T23:25:17;99173.94;;;-6.80;64.52
35878;BME280;21982;49.804;24.072;2022-12-18T23:27:42;99516.31;;;-4.73;64.66
35878;BME280;21982;49.804;24.072;2022-12-18T23:30:08;99507.75;;;-4.75;64.40
35878;BME280;21982;49.804;24.072;2022-12-18T23:32:35;99343.69;;;-5.56;64.45
35878;BME280;21982;49.804;24.072;2022-12-18T23:35:01;98919.56;;;-8.46;64.56
35878;BME280;21982;49.804;24.072;2022-12-18T23:37:26;99202.59;;;-6.21;64.15
35878;BME280;21982;49.804;24.072;2022-12-18T23:39:52;99328.72;;;-5.44;64.19
35878;BME280;21982;49.804;24.072;2022-12-18T23:42:18;99480.91;;;-4.37;64.58
35878;BME280;21982;49.804;24.072;2022-12-18T23:44:43;99492.84;;;-4.33;64.50
35878;BME280;21982;49.804;24.072;2022-12-18T23:47:08;99216.03;;;-6.08;64.00
35878;BME280;21982;49.804;24.072;2022-12-18T23:49:34;99377.56;;;-5.02;64.01
35878;BME280;21982;49.804;24.072;2022-12-18T23:51:59;99114.66;;;-6.43;63.71
35878;BME280;21982;49.804;24.072;2022-12-18T23:54:24;99440.28;;;-4.97;64.38
35878;BME280;21982;49.804;24.072;2022-12-18T23:56:50;99300.72;;;-5.57;63.96
35878;BME280;21982;49.804;24.072;2022-12-18T23:59:15;99350.22;;;-5.43;64.06
